Time;durP1;ratioP1;P1;durP2;ratioP2;P2;SDS_P1;SDS_P2;PMS_P1;PMS_P2;Temp;Humidity;BMP_temperature;BMP_pressure;BME280_temperature;BME280_humidity;BME280_pressure;Samples;Min_cycle;Max_cycle;Signal;HPM_P1;HPM_P2
2021/05/09 00:01:20;;;;;;;;;;;18.80;60.60;;;;;;5031574;28;1646;-68
2021/05/09 00:03:45;;;;;;;;;;;18.80;60.50;;;;;;5013819;28;1658;-68
2021/05/09 00:06:11;;;;;;;;;;;18.80;60.60;;;;;;5031181;28;1650;-68
2021/05/09 00:08:36;;;;;;;;;;;18.70;60.50;;;;;;5031562;28;1958;-68
2021/05/09 00:11:02;;;;;;;;;;;18.80;60.60;;;;;;5031222;28;1629;-67
2021/05/09 00:13:27;;;;;;;;;;;18.70;60.50;;;;;;5013531;28;1561;-67
2021/05/09 00:15:53;;;;;;;;;;;18.70;60.50;;;;;;5031089;28;1694;-68
2021/05/09 00:18:18;;;;;;;;;;;18.70;60.60;;;;;;5031506;28;1551;-68
2021/05/09 00:20:43;;;;;;;;;;;18.70;60.50;;;;;;5008950;28;1446;-68
2021/05/09 00:23:09;;;;;;;;;;;18.70;60.60;;;;;;5031376;28;1543;-67
2021/05/09 00:25:34;;;;;;;;;;;18.70;60.60;;;;;;5030965;28;1743;-67
2021/05/09 00:28:00;;;;;;;;;;;18.70;60.60;;;;;;5013554;28;1902;-68
2021/05/09 00:30:25;;;;;;;;;;;18.70;60.60;;;;;;5031324;28;1618;-68
2021/05/09 00:32:51;;;;;;;;;;;18.70;60.60;;;;;;5031341;28;1577;-68
2021/05/09 00:35:16;;;;;;;;;;;18.70;60.60;;;;;;5031846;28;1458;-68
2021/05/09 00:37:42;;;;;;;;;;;18.70;60.60;;;;;;5034888;28;1349;-68
2021/05/09 00:40:08;;;;;;;;;;;18.70;60.70;;;;;;5016931;28;1672;-68
2021/05/09 00:42:33;;;;;;;;;;;18.70;60.70;;;;;;5012878;28;1678;-68
2021/05/09 00:44:59;;;;;;;;;;;18.70;60.70;;;;;;5033867;28;1664;-68
2021/05/09 00:47:24;;;;;;;;;;;18.70;60.70;;;;;;5034479;28;1950;-68
2021/05/09 00:49:50;;;;;;;;;;;18.70;60.70;;;;;;5017078;28;1183;-67
2021/05/09 00:52:15;;;;;;;;;;;18.70;60.70;;;;;;5008649;28;1361;-67
2021/05/09 00:54:44;;;;;;;;;;;18.70;60.70;;;;;;5008908;28;1627;-67
2021/05/09 00:57:09;;;;;;;;;;;18.70;60.70;;;;;;5009821;28;1600;-68
2021/05/09 00:59:35;;;;;;;;;;;18.70;60.80;;;;;;5006988;28;1350;-68
2021/05/09 01:02:01;;;;;;;;;;;18.70;60.80;;;;;;5024644;28;1472;-68
2021/05/09 01:04:26;;;;;;;;;;;18.70;60.80;;;;;;5007357;28;1727;-68
2021/05/09 01:06:51;;;;;;;;;;;18.70;60.80;;;;;;5006357;28;1906;-68
2021/05/09 01:09:17;;;;;;;;;;;18.70;60.80;;;;;;5027456;28;1336;-68
2021/05/09 01:11:43;;;;;;;;;;;18.70;60.80;;;;;;5026350;28;1185;-67
2021/05/09 01:14:08;;;;;;;;;;;18.70;60.80;;;;;;5084105;22;2357;-63
2021/05/09 01:16:33;;;;;;;;;;;18.70;60.80;;;;;;5093268;28;983;-63
2021/05/09 01:18:59;;;;;;;;;;;18.70;60.80;;;;;;5095139;28;1114;-63
2021/05/09 01:21:24;;;;;;;;;;;18.60;60.80;;;;;;5095429;28;1138;-63
2021/05/09 01:23:50;;;;;;;;;;;18.60;60.80;;;;;;5095606;28;1315;-64
2021/05/09 01:26:15;;;;;;;;;;;18.60;60.90;;;;;;5094722;28;1034;-63
2021/05/09 01:28:41;;;;;;;;;;;18.60;60.80;;;;;;5095127;28;1914;-64
2021/05/09 01:31:06;;;;;;;;;;;18.60;60.80;;;;;;5093653;28;1118;-64
2021/05/09 01:33:31;;;;;;;;;;;18.60;60.80;;;;;;5094860;28;1398;-63
2021/05/09 01:35:57;;;;;;;;;;;18.60;60.90;;;;;;5093363;28;1070;-64
2021/05/09 01:38:23;;;;;;;;;;;18.60;60.90;;;;;;5094692;28;1050;-64
2021/05/09 01:40:48;;;;;;;;;;;18.60;60.90;;;;;;5094467;28;1136;-64
2021/05/09 01:43:14;;;;;;;;;;;18.60;60.90;;;;;;5094513;28;1351;-63
2021/05/09 01:45:39;;;;;;;;;;;18.60;60.90;;;;;;5094404;28;1164;-63
2021/05/09 01:48:05;;;;;;;;;;;18.60;61.70;;;;;;5093487;28;1902;-65
2021/05/09 01:50:30;;;;;;;;;;;18.60;60.90;;;;;;5094431;28;1069;-63
2021/05/09 01:52:55;;;;;;;;;;;18.60;60.90;;;;;;5093124;28;1250;-64
2021/05/09 01:55:22;;;;;;;;;;;18.60;61.00;;;;;;5093867;28;1061;-64
2021/05/09 01:57:47;;;;;;;;;;;18.60;61.10;;;;;;5094585;28;1165;-64
2021/05/09 02:00:13;;;;;;;;;;;18.60;61.00;;;;;;5094248;28;1205;-65
2021/05/09 02:02:39;;;;;;;;;;;18.60;61.00;;;;;;5094122;28;1284;-64
2021/05/09 02:05:05;;;;;;;;;;;18.60;61.00;;;;;;5093990;28;1149;-64
2021/05/09 02:07:30;;;;;;;;;;;18.60;61.00;;;;;;5093904;28;1910;-63
2021/05/09 02:09:56;;;;;;;;;;;18.60;61.00;;;;;;5092749;28;1083;-64
2021/05/09 02:12:21;;;;;;;;;;;18.60;61.00;;;;;;5093928;28;1265;-64
2021/05/09 02:14:46;;;;;;;;;;;18.60;61.10;;;;;;5083115;28;1176;-64
2021/05/09 02:17:12;;;;;;;;;;;18.60;61.10;;;;;;5073336;28;1055;-65
2021/05/09 02:19:37;;;;;;;;;;;18.60;61.10;;;;;;5071583;28;1199;-63
2021/05/09 02:22:03;;;;;;;;;;;18.60;61.10;;;;;;5070702;28;1118;-64
2021/05/09 02:24:28;;;;;;;;;;;18.60;61.10;;;;;;5073347;28;1623;-64
2021/05/09 02:26:53;;;;;;;;;;;18.50;61.10;;;;;;5072051;28;1963;-64
2021/05/09 02:29:19;;;;;;;;;;;18.50;61.10;;;;;;5073661;28;1149;-63
2021/05/09 02:31:44;;;;;;;;;;;18.50;61.10;;;;;;5073349;28;1055;-64
2021/05/09 02:34:10;;;;;;;;;;;18.50;61.10;;;;;;5073355;28;1220;-64
2021/05/09 02:36:35;;;;;;;;;;;18.50;61.10;;;;;;5073044;28;1202;-64
2021/05/09 02:39:01;;;;;;;;;;;18.60;61.20;;;;;;5073158;28;1092;-65
2021/05/09 02:41:26;;;;;;;;;;;18.50;61.10;;;;;;5073182;28;1137;-63
2021/05/09 02:43:51;;;;;;;;;;;18.60;61.20;;;;;;5073245;28;1278;-64
2021/05/09 02:46:17;;;;;;;;;;;18.50;61.20;;;;;;5072946;28;1145;-65
2021/05/09 02:48:42;;;;;;;;;;;18.50;61.10;;;;;;5073019;28;1898;-64
2021/05/09 02:51:08;;;;;;;;;;;18.50;61.20;;;;;;5071899;28;1019;-63
2021/05/09 02:53:33;;;;;;;;;;;18.50;61.20;;;;;;5072914;28;1263;-64
2021/05/09 02:55:58;;;;;;;;;;;18.50;61.20;;;;;;5072642;28;1166;-64
2021/05/09 02:58:24;;;;;;;;;;;18.50;61.20;;;;;;5073075;28;1087;-64
2021/05/09 03:00:49;;;;;;;;;;;18.50;61.20;;;;;;5072883;28;1134;-64
2021/05/09 03:03:15;;;;;;;;;;;18.50;61.20;;;;;;5073011;28;1349;-63
2021/05/09 03:05:40;;;;;;;;;;;18.50;61.20;;;;;;5071425;28;1143;-63
2021/05/09 03:08:06;;;;;;;;;;;18.50;61.20;;;;;;5072840;28;1906;-63
2021/05/09 03:10:32;;;;;;;;;;;18.50;61.30;;;;;;5072759;28;1138;-64
2021/05/09 03:12:58;;;;;;;;;;;18.50;61.30;;;;;;5072747;28;1285;-65
2021/05/09 03:15:23;;;;;;;;;;;18.50;61.30;;;;;;5072545;28;1304;-64
2021/05/09 03:17:49;;;;;;;;;;;18.50;61.30;;;;;;5071587;28;1149;-64
2021/05/09 03:20:14;;;;;;;;;;;18.50;61.30;;;;;;5067030;28;1088;-64
2021/05/09 03:22:39;;;;;;;;;;;18.50;61.30;;;;;;5072836;28;1280;-63
2021/05/09 03:25:05;;;;;;;;;;;18.50;61.30;;;;;;5071220;28;1071;-66
2021/05/09 03:27:30;;;;;;;;;;;18.50;61.30;;;;;;5072950;28;1913;-63
2021/05/09 03:29:56;;;;;;;;;;;18.50;61.30;;;;;;5072710;28;1138;-64
2021/05/09 03:32:21;;;;;;;;;;;18.50;61.30;;;;;;5072650;28;1276;-64
2021/05/09 03:34:47;;;;;;;;;;;18.50;61.30;;;;;;5072633;28;1130;-64
2021/05/09 03:37:12;;;;;;;;;;;18.50;61.30;;;;;;5072386;28;1082;-64
2021/05/09 03:39:37;;;;;;;;;;;18.50;61.30;;;;;;5072391;28;1141;-64
2021/05/09 03:42:03;;;;;;;;;;;18.50;61.30;;;;;;5072516;28;1086;-64
2021/05/09 03:44:28;;;;;;;;;;;18.50;61.30;;;;;;5072709;28;1285;-64
2021/05/09 03:46:54;;;;;;;;;;;18.50;61.30;;;;;;5072322;28;1906;-64
2021/05/09 03:49:19;;;;;;;;;;;18.50;61.20;;;;;;5072566;28;1134;-64
2021/05/09 03:51:45;;;;;;;;;;;18.50;61.20;;;;;;5072573;28;1175;-63
2021/05/09 03:54:10;;;;;;;;;;;18.60;61.20;;;;;;5072316;28;1203;-64
2021/05/09 03:56:36;;;;;;;;;;;18.50;61.10;;;;;;5072034;28;1130;-65
2021/05/09 03:59:01;;;;;;;;;;;18.50;61.00;;;;;;5072467;28;1170;-64
2021/05/09 04:01:26;;;;;;;;;;;18.50;61.00;;;;;;5072359;28;1090;-63
2021/05/09 04:03:52;;;;;;;;;;;18.60;61.00;;;;;;5072352;28;1277;-64
2021/05/09 04:06:17;;;;;;;;;;;18.60;61.00;;;;;;5072121;28;1122;-64
2021/05/09 04:08:43;;;;;;;;;;;18.60;61.00;;;;;;5072004;28;1897;-63
2021/05/09 04:11:11;;;;;;;;;;;18.60;61.00;;;;;;5074723;28;1035;-64
2021/05/09 04:13:43;;;;;;;;;;;18.60;60.90;;;;;;5074510;28;1395;-64
2021/05/09 04:16:09;;;;;;;;;;;18.60;60.90;;;;;;5075769;28;1126;-63
2021/05/09 04:18:34;;;;;;;;;;;18.60;60.90;;;;;;5075916;28;1402;-63
2021/05/09 04:21:00;;;;;;;;;;;18.60;60.80;;;;;;5078533;28;1081;-63
2021/05/09 04:23:25;;;;;;;;;;;18.60;60.80;;;;;;5095481;28;1259;-63
2021/05/09 04:25:51;;;;;;;;;;;18.60;60.80;;;;;;5095811;28;1023;-63
2021/05/09 04:28:17;;;;;;;;;;;18.60;60.80;;;;;;5094793;28;1914;-64
2021/05/09 04:30:42;;;;;;;;;;;18.60;60.80;;;;;;5094774;28;1074;-64
2021/05/09 04:33:08;;;;;;;;;;;18.60;60.80;;;;;;5094935;28;1279;-63
2021/05/09 04:35:34;;;;;;;;;;;18.70;60.80;;;;;;5095645;28;1181;-63
2021/05/09 04:37:59;;;;;;;;;;;18.70;60.80;;;;;;5077528;28;1175;-63
2021/05/09 04:40:26;;;;;;;;;;;18.70;60.80;;;;;;5095826;28;1050;-64
2021/05/09 04:42:52;;;;;;;;;;;18.70;60.80;;;;;;5095757;28;1282;-63
2021/05/09 04:45:17;;;;;;;;;;;18.70;60.80;;;;;;5094592;28;1054;-64
2021/05/09 04:47:43;;;;;;;;;;;18.70;60.70;;;;;;5095690;28;1894;-64
2021/05/09 04:50:08;;;;;;;;;;;18.70;60.70;;;;;;5095724;28;1591;-64
2021/05/09 04:52:34;;;;;;;;;;;18.70;60.70;;;;;;5095432;28;1256;-64
2021/05/09 04:54:59;;;;;;;;;;;18.70;60.70;;;;;;5095444;28;1240;-65
2021/05/09 04:57:25;;;;;;;;;;;18.70;60.70;;;;;;5095354;28;1140;-64
2021/05/09 04:59:50;;;;;;;;;;;18.70;60.70;;;;;;5095625;28;1185;-64
2021/05/09 05:02:16;;;;;;;;;;;18.70;60.70;;;;;;5094174;28;1142;-64
2021/05/09 05:04:41;;;;;;;;;;;18.70;60.70;;;;;;5095328;28;1237;-64
2021/05/09 05:07:06;;;;;;;;;;;18.70;60.70;;;;;;5093600;28;1898;-64
2021/05/09 05:09:32;;;;;;;;;;;18.70;60.70;;;;;;5095287;28;1144;-64
2021/05/09 05:11:57;;;;;;;;;;;18.70;60.70;;;;;;5095276;28;1102;-63
2021/05/09 05:14:23;;;;;;;;;;;18.70;60.70;;;;;;5087448;28;1265;-64
2021/05/09 05:16:48;;;;;;;;;;;18.70;60.60;;;;;;5074568;28;1142;-64
2021/05/09 05:19:14;;;;;;;;;;;18.70;60.60;;;;;;5075067;28;1121;-63
2021/05/09 05:21:39;;;;;;;;;;;18.70;60.60;;;;;;5068822;28;1149;-64
2021/05/09 05:24:05;;;;;;;;;;;18.70;60.60;;;;;;5074853;28;1204;-64
2021/05/09 05:26:30;;;;;;;;;;;18.70;60.60;;;;;;5074690;28;1039;-63
2021/05/09 05:28:56;;;;;;;;;;;18.70;60.60;;;;;;5074787;28;1934;-64
2021/05/09 05:31:21;;;;;;;;;;;18.70;60.60;;;;;;5074584;28;1094;-63
2021/05/09 05:33:46;;;;;;;;;;;18.70;60.60;;;;;;5074577;28;1183;-64
2021/05/09 05:36:12;;;;;;;;;;;18.70;61.40;;;;;;5074131;28;1063;-64
2021/05/09 05:38:37;;;;;;;;;;;18.70;60.60;;;;;;5074513;28;1107;-64
2021/05/09 05:41:03;;;;;;;;;;;18.70;60.60;;;;;;5074537;28;1055;-63
2021/05/09 05:43:31;;;;;;;;;;;18.70;60.60;;;;;;5074269;28;1322;-64
2021/05/09 05:45:57;;;;;;;;;;;18.70;60.60;;;;;;5074142;28;1094;-63
2021/05/09 05:48:22;;;;;;;;;;;18.70;60.60;;;;;;5074387;28;1910;-63
2021/05/09 05:50:48;;;;;;;;;;;18.70;60.60;;;;;;5072840;28;1106;-64
2021/05/09 05:53:17;;;;;;;;;;;18.70;60.60;;;;;;5073028;28;1227;-64
2021/05/09 05:55:43;;;;;;;;;;;18.70;60.60;;;;;;5073864;28;1086;-64
2021/05/09 05:58:08;;;;;;;;;;;18.70;60.60;;;;;;5074152;28;1069;-64
2021/05/09 06:00:34;;;;;;;;;;;18.70;60.60;;;;;;5073956;28;1050;-65
2021/05/09 06:02:59;;;;;;;;;;;18.70;60.60;;;;;;5074267;28;1326;-64
2021/05/09 06:05:24;;;;;;;;;;;18.70;60.60;;;;;;5073670;28;1075;-63
2021/05/09 06:07:50;;;;;;;;;;;18.70;60.60;;;;;;5073889;28;1953;-64
2021/05/09 06:10:15;;;;;;;;;;;18.70;60.60;;;;;;5073802;28;1125;-63
2021/05/09 06:12:43;;;;;;;;;;;18.70;60.60;;;;;;5074010;28;1286;-64
2021/05/09 06:15:10;;;;;;;;;;;18.70;60.60;;;;;;5073428;28;1632;-64
2021/05/09 06:17:35;;;;;;;;;;;18.70;60.60;;;;;;5073995;28;1070;-64
2021/05/09 06:20:00;;;;;;;;;;;18.70;60.60;;;;;;5069348;28;1102;-65
2021/05/09 06:22:26;;;;;;;;;;;18.70;60.60;;;;;;5049430;28;1662;-64
2021/05/09 06:24:52;;;;;;;;;;;18.70;60.60;;;;;;5062309;28;1997;-65
2021/05/09 06:27:17;;;;;;;;;;;18.70;60.60;;;;;;5076870;28;1910;-65
2021/05/09 06:29:42;;;;;;;;;;;18.70;60.60;;;;;;5086988;28;1168;-64
2021/05/09 06:32:08;;;;;;;;;;;18.70;60.60;;;;;;5093666;28;1050;-64
2021/05/09 06:34:33;;;;;;;;;;;18.70;60.60;;;;;;5092768;28;1208;-64
2021/05/09 06:36:59;;;;;;;;;;;18.70;60.50;;;;;;5077968;28;1226;-65
2021/05/09 06:39:29;;;;;;;;;;;18.70;60.60;;;;;;5073250;28;1066;-65
2021/05/09 06:41:57;;;;;;;;;;;18.70;60.50;;;;;;5080586;28;1302;-64
2021/05/09 06:44:25;;;;;;;;;;;18.70;60.60;;;;;;5093248;28;1671;-63
2021/05/09 06:46:51;;;;;;;;;;;18.70;60.60;;;;;;5092906;28;1894;-64
2021/05/09 06:49:16;;;;;;;;;;;18.70;60.60;;;;;;5093247;28;1093;-63
2021/05/09 06:51:41;;;;;;;;;;;18.70;60.60;;;;;;5093282;28;1086;-65
2021/05/09 06:54:07;;;;;;;;;;;18.70;60.60;;;;;;5078710;28;1198;-66
2021/05/09 06:56:32;;;;;;;;;;;18.70;60.60;;;;;;5083984;28;838;-65
2021/05/09 06:58:58;;;;;;;;;;;18.70;60.60;;;;;;5086929;28;1061;-64
2021/05/09 07:01:23;;;;;;;;;;;18.70;60.60;;;;;;5075414;28;2238;-64
2021/05/09 07:03:50;;;;;;;;;;;18.70;60.60;;;;;;5069911;28;1280;-64
2021/05/09 07:06:16;;;;;;;;;;;18.70;60.60;;;;;;5074046;28;2139;-65
2021/05/09 07:08:41;;;;;;;;;;;18.70;60.60;;;;;;5066317;28;1902;-65
2021/05/09 07:11:07;;;;;;;;;;;18.70;60.60;;;;;;5080608;28;1124;-65
2021/05/09 07:13:32;;;;;;;;;;;18.70;60.60;;;;;;5108201;22;2268;-72
2021/05/09 07:15:58;;;;;;;;;;;18.70;60.60;;;;;;5072972;28;893;-71
2021/05/09 07:18:25;;;;;;;;;;;18.70;60.60;;;;;;5073406;28;897;-71
2021/05/09 07:20:55;;;;;;;;;;;18.70;60.60;;;;;;5071885;28;1393;-71
2021/05/09 07:23:20;;;;;;;;;;;18.70;60.60;;;;;;5072238;28;1294;-71
2021/05/09 07:25:46;;;;;;;;;;;18.70;60.60;;;;;;5065090;28;882;-71
2021/05/09 07:28:12;;;;;;;;;;;18.70;60.60;;;;;;5053064;28;1918;-71
2021/05/09 07:30:38;;;;;;;;;;;18.70;60.60;;;;;;5052704;28;1265;-71
2021/05/09 07:33:03;;;;;;;;;;;18.70;60.60;;;;;;5051550;28;1720;-70
2021/05/09 07:35:29;;;;;;;;;;;18.70;60.60;;;;;;5051292;28;1376;-70
2021/05/09 07:37:54;;;;;;;;;;;18.70;60.60;;;;;;5052930;28;1705;-70
2021/05/09 07:40:20;;;;;;;;;;;18.70;60.60;;;;;;5051593;28;1582;-70
2021/05/09 07:42:46;;;;;;;;;;;18.70;60.60;;;;;;5051450;28;1409;-71
2021/05/09 07:45:16;;;;;;;;;;;18.70;60.60;;;;;;5052072;28;1741;-70
2021/05/09 07:47:42;;;;;;;;;;;18.70;60.60;;;;;;5056827;28;1908;-71
2021/05/09 07:50:09;;;;;;;;;;;18.70;60.60;;;;;;5056955;28;1149;-70
2021/05/09 07:52:34;;;;;;;;;;;18.70;60.60;;;;;;5056722;28;838;-70
2021/05/09 07:54:59;;;;;;;;;;;18.70;60.60;;;;;;5056543;28;1287;-70
2021/05/09 07:57:25;;;;;;;;;;;18.80;60.70;;;;;;5055182;28;1180;-71
2021/05/09 07:59:50;;;;;;;;;;;18.70;60.60;;;;;;5056652;28;1449;-69
2021/05/09 08:02:16;;;;;;;;;;;18.80;60.70;;;;;;5056641;28;1332;-69
2021/05/09 08:04:41;;;;;;;;;;;18.80;60.70;;;;;;5056902;28;1306;-72
2021/05/09 08:07:07;;;;;;;;;;;18.70;60.60;;;;;;5055376;28;2024;-70
2021/05/09 08:09:32;;;;;;;;;;;18.80;60.70;;;;;;5049449;28;1154;-71
2021/05/09 08:11:58;;;;;;;;;;;18.70;60.60;;;;;;5036923;28;1137;-71
2021/05/09 08:14:23;;;;;;;;;;;18.80;60.70;;;;;;5056313;28;1215;-70
2021/05/09 08:16:48;;;;;;;;;;;18.80;60.70;;;;;;5042705;28;1185;-70
2021/05/09 08:19:14;;;;;;;;;;;18.80;60.70;;;;;;5056927;28;982;-71
2021/05/09 08:21:39;;;;;;;;;;;18.80;60.70;;;;;;5056491;28;1089;-72
2021/05/09 08:24:05;;;;;;;;;;;18.80;60.70;;;;;;5056479;28;1208;-71
2021/05/09 08:26:30;;;;;;;;;;;18.80;60.70;;;;;;5056223;28;1001;-72
2021/05/09 08:28:56;;;;;;;;;;;18.80;60.70;;;;;;5056251;28;1898;-72
2021/05/09 08:31:21;;;;;;;;;;;18.80;60.70;;;;;;5055856;28;865;-71
2021/05/09 08:33:48;;;;;;;;;;;18.70;60.60;;;;;;5056104;28;1210;-71
2021/05/09 08:36:14;;;;;;;;;;;18.80;60.70;;;;;;5056010;28;871;-71
2021/05/09 08:38:40;;;;;;;;;;;18.80;60.70;;;;;;5055933;28;842;-71
2021/05/09 08:41:05;;;;;;;;;;;18.80;60.60;;;;;;5055789;28;769;-71
2021/05/09 08:43:30;;;;;;;;;;;18.80;60.70;;;;;;5055909;28;1200;-72
2021/05/09 08:45:56;;;;;;;;;;;18.80;60.70;;;;;;5055806;28;799;-72
2021/05/09 08:48:24;;;;;;;;;;;18.80;60.70;;;;;;5055954;28;1965;-72
2021/05/09 08:50:50;;;;;;;;;;;18.70;60.60;;;;;;5054663;28;1227;-72
2021/05/09 08:53:19;;;;;;;;;;;18.80;60.70;;;;;;5055882;28;1662;-72
2021/05/09 08:55:44;;;;;;;;;;;18.80;60.70;;;;;;5053680;28;1386;-72
2021/05/09 08:58:10;;;;;;;;;;;18.80;60.70;;;;;;5054590;28;1139;-72
2021/05/09 09:00:36;;;;;;;;;;;18.80;60.70;;;;;;5037965;28;1742;-72
2021/05/09 09:03:03;;;;;;;;;;;18.80;60.70;;;;;;5055567;28;1217;-72
2021/05/09 09:05:55;;;;;;;;;;;18.80;60.70;;;;;;5055469;28;1437;-72
2021/05/09 09:08:23;;;;;;;;;;;18.80;60.70;;;;;;5051504;28;1944;-72
2021/05/09 09:10:49;;;;;;;;;;;18.80;60.70;;;;;;5053998;28;1170;-72
2021/05/09 09:13:22;;;;;;;;;;;18.80;60.70;;;;;;5054245;28;1224;-70
2021/05/09 09:15:48;;;;;;;;;;;18.70;60.60;;;;;;5055250;28;827;-71
2021/05/09 09:18:25;;;;;;;;;;;18.80;60.70;;;;;;5056387;28;1013;-71
2021/05/09 09:20:51;;;;;;;;;;;18.80;60.70;;;;;;5039925;28;1095;-72
2021/05/09 09:23:16;;;;;;;;;;;18.70;60.60;;;;;;5049715;28;1284;-71
2021/05/09 09:25:42;;;;;;;;;;;18.80;60.70;;;;;;5052118;28;1147;-70
2021/05/09 09:28:07;;;;;;;;;;;18.70;60.60;;;;;;5042534;28;1963;-71
2021/05/09 09:30:33;;;;;;;;;;;18.80;60.70;;;;;;5051259;28;1306;-73
2021/05/09 09:33:11;;;;;;;;;;;18.80;60.70;;;;;;5043764;28;1454;-73
2021/05/09 09:35:37;;;;;;;;;;;18.70;60.70;;;;;;5043005;28;1177;-72
2021/05/09 09:38:44;;;;;;;;;;;18.80;60.70;;;;;;5045950;28;1184;-73
2021/05/09 09:41:13;;;;;;;;;;;18.80;60.70;;;;;;4970296;28;1460;-71
2021/05/09 09:43:57;;;;;;;;;;;18.80;60.70;;;;;;4976089;28;1388;-71
2021/05/09 09:46:23;;;;;;;;;;;18.80;60.80;;;;;;5020798;28;1146;-72
2021/05/09 09:48:49;;;;;;;;;;;18.80;60.70;;;;;;5043908;28;1951;-73
2021/05/09 09:51:14;;;;;;;;;;;18.70;60.70;;;;;;5054589;28;836;-72
2021/05/09 09:53:42;;;;;;;;;;;18.80;60.70;;;;;;5036892;28;1176;-72
2021/05/09 09:56:08;;;;;;;;;;;18.80;61.60;;;;;;5053653;28;894;-72
2021/05/09 09:58:39;;;;;;;;;;;18.70;60.70;;;;;;5054687;28;788;-72
2021/05/09 10:01:04;;;;;;;;;;;18.70;60.70;;;;;;5050241;28;1078;-72
2021/05/09 10:03:30;;;;;;;;;;;18.70;60.70;;;;;;5043989;28;1263;-72
2021/05/09 10:05:56;;;;;;;;;;;18.70;60.70;;;;;;5053006;28;1064;-72
2021/05/09 10:08:23;;;;;;;;;;;18.70;60.70;;;;;;5052466;28;1906;-72
2021/05/09 10:10:48;;;;;;;;;;;18.70;60.70;;;;;;5054149;28;914;-71
2021/05/09 10:13:14;;;;;;;;;;;18.70;60.70;;;;;;5032627;28;2095;-72
2021/05/09 10:15:39;;;;;;;;;;;18.70;60.80;;;;;;5082982;28;1611;-72
2021/05/09 10:18:05;;;;;;;;;;;18.70;60.80;;;;;;5043057;28;1036;-73
2021/05/09 10:20:31;;;;;;;;;;;18.70;60.80;;;;;;5050275;28;1431;-70
2021/05/09 10:23:06;;;;;;;;;;;18.70;61.60;;;;;;5052487;28;1387;-70
2021/05/09 10:25:45;;;;;;;;;;;18.70;60.80;;;;;;5052486;28;1699;-71
2021/05/09 10:28:10;;;;;;;;;;;18.70;60.80;;;;;;5053592;28;1971;-70
2021/05/09 10:30:55;;;;;;;;;;;18.70;60.80;;;;;;5024931;28;2270;-70
2021/05/09 10:33:42;;;;;;;;;;;18.70;60.80;;;;;;5047416;28;1714;-70
2021/05/09 10:36:08;;;;;;;;;;;18.70;60.90;;;;;;5037325;28;1404;-70
2021/05/09 10:38:53;;;;;;;;;;;18.70;60.90;;;;;;5035713;28;1629;-70
2021/05/09 10:41:18;;;;;;;;;;;18.70;60.90;;;;;;5040529;28;1321;-69
2021/05/09 10:43:44;;;;;;;;;;;18.70;60.90;;;;;;5042530;28;1330;-70
2021/05/09 10:46:10;;;;;;;;;;;18.70;60.90;;;;;;5042690;28;1195;-70
2021/05/09 10:48:35;;;;;;;;;;;18.70;60.90;;;;;;5045708;28;1902;-70
2021/05/09 10:51:01;;;;;;;;;;;18.70;60.90;;;;;;5048996;28;1220;-70
2021/05/09 10:53:32;;;;;;;;;;;18.70;61.00;;;;;;5052706;28;1268;-71
2021/05/09 10:55:58;;;;;;;;;;;18.70;61.00;;;;;;5051478;28;1338;-72
2021/05/09 10:58:39;;;;;;;;;;;18.70;61.00;;;;;;5052140;28;882;-72
2021/05/09 11:01:07;;;;;;;;;;;18.70;61.00;;;;;;5053611;28;1122;-72
2021/05/09 11:03:36;;;;;;;;;;;18.70;61.00;;;;;;5053110;28;1260;-72
2021/05/09 11:06:01;;;;;;;;;;;18.70;61.00;;;;;;5052956;28;976;-72
2021/05/09 11:08:53;;;;;;;;;;;18.70;61.00;;;;;;5051884;28;1981;-72
2021/05/09 11:11:25;;;;;;;;;;;18.70;61.00;;;;;;5033074;28;1216;-72
2021/05/09 11:13:56;;;;;;;;;;;18.70;61.00;;;;;;5052753;28;1291;-72
2021/05/09 11:16:21;;;;;;;;;;;18.70;61.10;;;;;;5051505;28;1280;-72
2021/05/09 11:18:55;;;;;;;;;;;18.70;61.10;;;;;;5051606;28;1147;-72
2021/05/09 11:21:21;;;;;;;;;;;18.70;61.10;;;;;;5035652;28;1167;-72
2021/05/09 11:23:46;;;;;;;;;;;18.70;61.20;;;;;;5036143;28;1243;-72
2021/05/09 11:26:24;;;;;;;;;;;18.70;61.10;;;;;;5052682;28;863;-71
2021/05/09 11:29:08;;;;;;;;;;;18.70;61.20;;;;;;5052973;28;1914;-71
2021/05/09 11:31:37;;;;;;;;;;;18.60;61.10;;;;;;5051627;28;1444;-72
2021/05/09 11:34:03;;;;;;;;;;;18.70;61.20;;;;;;5051538;28;1394;-71
2021/05/09 11:36:29;;;;;;;;;;;18.60;61.10;;;;;;5051529;28;792;-72
2021/05/09 11:39:03;;;;;;;;;;;18.60;61.10;;;;;;5052822;28;1071;-72
2021/05/09 11:41:29;;;;;;;;;;;18.60;61.90;;;;;;5053041;28;820;-72
2021/05/09 11:44:04;;;;;;;;;;;18.60;61.10;;;;;;5035001;28;1595;-72
2021/05/09 11:46:33;;;;;;;;;;;18.60;61.10;;;;;;5034850;28;1269;-71
2021/05/09 11:49:14;;;;;;;;;;;18.60;61.20;;;;;;5051517;28;1902;-72
2021/05/09 11:51:51;;;;;;;;;;;18.60;61.20;;;;;;5052567;28;1079;-72
2021/05/09 11:54:17;;;;;;;;;;;18.60;61.20;;;;;;5052616;28;1197;-72
2021/05/09 11:56:52;;;;;;;;;;;18.60;61.20;;;;;;5051307;28;1182;-72
2021/05/09 11:59:37;;;;;;;;;;;18.60;61.20;;;;;;5052700;28;1055;-72
2021/05/09 12:02:03;;;;;;;;;;;18.60;61.20;;;;;;5052471;28;1126;-71
2021/05/09 12:04:29;;;;;;;;;;;18.60;61.20;;;;;;5052790;28;1176;-72
2021/05/09 12:06:56;;;;;;;;;;;18.60;61.30;;;;;;5052352;28;1012;-72
2021/05/09 12:09:21;;;;;;;;;;;18.60;61.20;;;;;;5051280;28;1902;-71
2021/05/09 12:11:46;;;;;;;;;;;18.60;61.30;;;;;;5052612;28;1141;-71
2021/05/09 12:14:12;;;;;;;;;;;18.60;61.20;;;;;;5050494;28;1366;-72
2021/05/09 12:16:41;;;;;;;;;;;18.60;61.30;;;;;;5050982;28;1105;-71
2021/05/09 12:19:07;;;;;;;;;;;18.60;61.30;;;;;;5052570;28;1285;-72
2021/05/09 12:21:32;;;;;;;;;;;18.60;61.30;;;;;;5051839;28;1194;-72
2021/05/09 12:24:01;;;;;;;;;;;18.60;61.30;;;;;;5050972;28;1241;-72
2021/05/09 12:26:27;;;;;;;;;;;18.60;61.30;;;;;;5050986;28;996;-72
2021/05/09 12:28:52;;;;;;;;;;;18.60;61.30;;;;;;5051423;28;1902;-72
2021/05/09 12:31:19;;;;;;;;;;;18.60;61.30;;;;;;5053143;28;1114;-72
2021/05/09 12:33:47;;;;;;;;;;;18.60;61.40;;;;;;5056124;28;1279;-71
2021/05/09 12:36:20;;;;;;;;;;;18.60;61.40;;;;;;5054385;28;1127;-72
2021/05/09 12:38:46;;;;;;;;;;;18.60;61.40;;;;;;5055189;28;891;-71
2021/05/09 12:41:15;;;;;;;;;;;18.60;61.30;;;;;;5055710;28;1138;-72
2021/05/09 12:43:44;;;;;;;;;;;18.60;61.30;;;;;;5055801;28;1291;-71
2021/05/09 12:46:29;;;;;;;;;;;18.60;61.40;;;;;;5054238;28;1471;-72
2021/05/09 12:49:05;;;;;;;;;;;18.60;61.40;;;;;;5054310;28;1895;-72
2021/05/09 12:51:30;;;;;;;;;;;18.60;61.40;;;;;;5054420;28;1056;-72
2021/05/09 12:53:56;;;;;;;;;;;18.60;62.10;;;;;;5054416;28;1286;-72
2021/05/09 12:56:23;;;;;;;;;;;18.60;61.40;;;;;;5055256;28;1150;-72
2021/05/09 12:59:09;;;;;;;;;;;18.60;61.40;;;;;;5054406;28;1369;-72
2021/05/09 13:01:38;;;;;;;;;;;18.60;61.40;;;;;;5054297;28;1699;-72
2021/05/09 13:04:20;;;;;;;;;;;18.50;61.30;;;;;;5032223;28;1504;-71
2021/05/09 13:06:46;;;;;;;;;;;18.60;61.40;;;;;;5045545;28;1236;-71
2021/05/09 13:09:11;;;;;;;;;;;18.60;61.40;;;;;;5038137;28;1902;-72
2021/05/09 13:11:37;;;;;;;;;;;18.60;61.40;;;;;;5055485;28;986;-72
2021/05/09 13:14:03;;;;;;;;;;;18.50;61.40;;;;;;5070413;22;2168;-66
2021/05/09 13:16:29;;;;;;;;;;;18.50;61.40;;;;;;5049358;28;1270;-65
2021/05/09 13:18:57;;;;;;;;;;;18.60;61.50;;;;;;5072623;28;1368;-65
2021/05/09 13:21:22;;;;;;;;;;;18.50;61.40;;;;;;5074987;28;1393;-64
2021/05/09 13:23:48;;;;;;;;;;;18.60;61.50;;;;;;5071002;28;2056;-65
2021/05/09 13:26:13;;;;;;;;;;;18.60;61.70;;;;;;5050074;28;1959;-64
2021/05/09 13:28:39;;;;;;;;;;;18.60;61.70;;;;;;5053658;28;1910;-64
2021/05/09 13:31:04;;;;;;;;;;;18.50;61.70;;;;;;5025799;28;1675;-64
2021/05/09 13:33:30;;;;;;;;;;;18.50;61.70;;;;;;5055755;28;1302;-64
2021/05/09 13:35:55;;;;;;;;;;;18.60;61.70;;;;;;5055420;28;1643;-63
2021/05/09 13:38:21;;;;;;;;;;;18.50;61.60;;;;;;5054740;28;1615;-64
2021/05/09 13:40:46;;;;;;;;;;;18.60;61.70;;;;;;5053929;28;1473;-64
2021/05/09 13:43:11;;;;;;;;;;;18.60;62.40;;;;;;5056749;28;1418;-64
2021/05/09 13:45:37;;;;;;;;;;;18.60;61.70;;;;;;5054226;28;1696;-64
2021/05/09 13:48:02;;;;;;;;;;;18.50;61.60;;;;;;5047428;28;1986;-64
2021/05/09 13:50:28;;;;;;;;;;;18.50;61.60;;;;;;5035302;28;1425;-64
2021/05/09 13:52:53;;;;;;;;;;;18.50;61.60;;;;;;5040082;28;1447;-64
2021/05/09 13:55:19;;;;;;;;;;;18.60;61.70;;;;;;5073084;28;1301;-64
2021/05/09 13:57:44;;;;;;;;;;;18.50;61.60;;;;;;5073414;28;1334;-64
2021/05/09 14:00:10;;;;;;;;;;;18.60;61.70;;;;;;5073109;28;1377;-64
2021/05/09 14:02:35;;;;;;;;;;;18.50;61.60;;;;;;5071913;28;1173;-64
2021/05/09 14:05:01;;;;;;;;;;;18.50;61.60;;;;;;5066391;28;1687;-63
2021/05/09 14:07:26;;;;;;;;;;;18.50;61.60;;;;;;5051226;28;1902;-64
2021/05/09 14:09:52;;;;;;;;;;;18.50;61.60;;;;;;5050545;28;2079;-64
2021/05/09 14:12:18;;;;;;;;;;;18.50;61.60;;;;;;5059671;28;1575;-63
2021/05/09 14:14:44;;;;;;;;;;;18.60;61.70;;;;;;5055499;28;1583;-64
2021/05/09 14:17:09;;;;;;;;;;;18.50;61.60;;;;;;5043737;28;1435;-63
2021/05/09 14:19:35;;;;;;;;;;;18.60;61.70;;;;;;5032331;28;1618;-64
2021/05/09 14:22:00;;;;;;;;;;;18.50;61.60;;;;;;5032661;28;1691;-65
2021/05/09 14:24:26;;;;;;;;;;;18.50;61.60;;;;;;5055818;28;1582;-64
2021/05/09 14:26:51;;;;;;;;;;;18.50;61.60;;;;;;5067745;28;1493;-64
2021/05/09 14:29:17;;;;;;;;;;;18.50;61.70;;;;;;5072222;28;1910;-63